sensor_id;sensor_type;location;lat;lon;timestamp;P1;durP1;ratioP1;P2;durP2;ratioP2
17151;SDS011;8691;50.828;4.700;2023-04-03T00:00:51;7.03;;;6.43;;
17151;SDS011;8691;50.828;4.700;2023-04-03T00:03:28;7.23;;;6.40;;
17151;SDS011;8691;50.828;4.700;2023-04-03T00:06:04;7.37;;;6.63;;
17151;SDS011;8691;50.828;4.700;2023-04-03T00:08:42;7.07;;;6.37;;
17151;SDS011;8691;50.828;4.700;2023-04-03T00:11:19;7.93;;;6.47;;
17151;SDS011;8691;50.828;4.700;2023-04-03T00:13:56;7.57;;;6.87;;
17151;SDS011;8691;50.828;4.700;2023-04-03T00:16:32;7.27;;;6.57;;
17151;SDS011;8691;50.828;4.700;2023-04-03T00:19:09;7.40;;;6.70;;
17151;SDS011;8691;50.828;4.700;2023-04-03T00:21:46;7.50;;;6.80;;
17151;SDS011;8691;50.828;4.700;2023-04-03T00:24:22;9.63;;;8.83;;
17151;SDS011;8691;50.828;4.700;2023-04-03T00:26:59;7.13;;;6.53;;
17151;SDS011;8691;50.828;4.700;2023-04-03T00:29:37;6.83;;;6.23;;
17151;SDS011;8691;50.828;4.700;2023-04-03T00:32:14;6.70;;;6.10;;
17151;SDS011;8691;50.828;4.700;2023-04-03T00:34:51;7.03;;;6.43;;
17151;SDS011;8691;50.828;4.700;2023-04-03T00:37:27;7.97;;;7.17;;
17151;SDS011;8691;50.828;4.700;2023-04-03T00:40:04;9.93;;;9.03;;
17151;SDS011;8691;50.828;4.700;2023-04-03T00:42:41;9.87;;;6.57;;
17151;SDS011;8691;50.828;4.700;2023-04-03T00:47:55;8.43;;;6.97;;
17151;SDS011;8691;50.828;4.700;2023-04-03T00:50:32;8.80;;;7.07;;
17151;SDS011;8691;50.828;4.700;2023-04-03T00:53:10;10.03;;;9.03;;
17151;SDS011;8691;50.828;4.700;2023-04-03T00:55:46;10.07;;;9.07;;
17151;SDS011;8691;50.828;4.700;2023-04-03T00:58:25;10.37;;;7.60;;
17151;SDS011;8691;50.828;4.700;2023-04-03T01:00:59;9.40;;;6.70;;
17151;SDS011;8691;50.828;4.700;2023-04-03T01:03:35;7.33;;;6.63;;
17151;SDS011;8691;50.828;4.700;2023-04-03T01:06:13;7.47;;;6.27;;
17151;SDS011;8691;50.828;4.700;2023-04-03T01:08:49;7.07;;;5.90;;
17151;SDS011;8691;50.828;4.700;2023-04-03T01:11:26;7.13;;;6.43;;
17151;SDS011;8691;50.828;4.700;2023-04-03T01:14:03;7.67;;;6.87;;
17151;SDS011;8691;50.828;4.700;2023-04-03T01:16:40;7.07;;;6.47;;
17151;SDS011;8691;50.828;4.700;2023-04-03T01:19:17;8.37;;;7.47;;
17151;SDS011;8691;50.828;4.700;2023-04-03T01:24:39;12.37;;;6.70;;
17151;SDS011;8691;50.828;4.700;2023-04-03T01:27:15;7.67;;;6.87;;
17151;SDS011;8691;50.828;4.700;2023-04-03T01:29:52;9.20;;;6.70;;
17151;SDS011;8691;50.828;4.700;2023-04-03T01:32:29;7.77;;;7.07;;
17151;SDS011;8691;50.828;4.700;2023-04-03T01:35:07;9.03;;;8.17;;
17151;SDS011;8691;50.828;4.700;2023-04-03T01:37:42;8.93;;;7.20;;
17151;SDS011;8691;50.828;4.700;2023-04-03T01:40:19;6.93;;;6.33;;
17151;SDS011;8691;50.828;4.700;2023-04-03T01:42:56;9.87;;;6.20;;
17151;SDS011;8691;50.828;4.700;2023-04-03T01:45:32;6.53;;;5.93;;
17151;SDS011;8691;50.828;4.700;2023-04-03T01:48:09;8.03;;;6.47;;
17151;SDS011;8691;50.828;4.700;2023-04-03T01:50:46;9.43;;;8.20;;
17151;SDS011;8691;50.828;4.700;2023-04-03T01:53:22;8.70;;;7.90;;
17151;SDS011;8691;50.828;4.700;2023-04-03T01:55:59;7.33;;;6.40;;
17151;SDS011;8691;50.828;4.700;2023-04-03T01:58:36;6.97;;;5.97;;
17151;SDS011;8691;50.828;4.700;2023-04-03T02:01:12;6.43;;;5.73;;
17151;SDS011;8691;50.828;4.700;2023-04-03T02:03:49;6.77;;;6.00;;
17151;SDS011;8691;50.828;4.700;2023-04-03T02:06:26;7.73;;;5.50;;
17151;SDS011;8691;50.828;4.700;2023-04-03T02:09:02;8.33;;;6.00;;
17151;SDS011;8691;50.828;4.700;2023-04-03T02:11:39;6.30;;;5.67;;
17151;SDS011;8691;50.828;4.700;2023-04-03T02:14:16;6.67;;;5.97;;
17151;SDS011;8691;50.828;4.700;2023-04-03T02:16:52;8.00;;;6.03;;
17151;SDS011;8691;50.828;4.700;2023-04-03T02:19:29;9.40;;;8.53;;
17151;SDS011;8691;50.828;4.700;2023-04-03T02:22:06;7.60;;;6.90;;
17151;SDS011;8691;50.828;4.700;2023-04-03T02:24:43;9.27;;;6.53;;
17151;SDS011;8691;50.828;4.700;2023-04-03T02:27:20;7.03;;;6.33;;
17151;SDS011;8691;50.828;4.700;2023-04-03T02:29:57;9.37;;;8.40;;
17151;SDS011;8691;50.828;4.700;2023-04-03T02:32:33;7.57;;;6.97;;
17151;SDS011;8691;50.828;4.700;2023-04-03T02:35:11;7.37;;;6.47;;
17151;SDS011;8691;50.828;4.700;2023-04-03T02:37:47;7.10;;;6.43;;
17151;SDS011;8691;50.828;4.700;2023-04-03T02:40:24;7.47;;;5.97;;
17151;SDS011;8691;50.828;4.700;2023-04-03T02:43:01;7.07;;;6.47;;
17151;SDS011;8691;50.828;4.700;2023-04-03T02:45:37;6.63;;;6.03;;
17151;SDS011;8691;50.828;4.700;2023-04-03T02:48:14;7.67;;;5.80;;
17151;SDS011;8691;50.828;4.700;2023-04-03T02:50:51;6.83;;;6.13;;
17151;SDS011;8691;50.828;4.700;2023-04-03T02:53:27;6.57;;;6.00;;
17151;SDS011;8691;50.828;4.700;2023-04-03T02:56:04;7.67;;;6.13;;
17151;SDS011;8691;50.828;4.700;2023-04-03T02:58:41;11.10;;;6.40;;
17151;SDS011;8691;50.828;4.700;2023-04-03T03:01:17;7.33;;;6.40;;
17151;SDS011;8691;50.828;4.700;2023-04-03T03:03:54;6.73;;;6.07;;
17151;SDS011;8691;50.828;4.700;2023-04-03T03:06:31;7.97;;;5.90;;
17151;SDS011;8691;50.828;4.700;2023-04-03T03:09:07;6.07;;;5.57;;
17151;SDS011;8691;50.828;4.700;2023-04-03T03:11:44;6.43;;;5.70;;
17151;SDS011;8691;50.828;4.700;2023-04-03T03:14:21;6.03;;;5.53;;
17151;SDS011;8691;50.828;4.700;2023-04-03T03:16:57;7.30;;;6.20;;
17151;SDS011;8691;50.828;4.700;2023-04-03T03:19:34;6.60;;;6.00;;
17151;SDS011;8691;50.828;4.700;2023-04-03T03:22:10;6.07;;;5.47;;
17151;SDS011;8691;50.828;4.700;2023-04-03T03:24:47;7.07;;;5.73;;
17151;SDS011;8691;50.828;4.700;2023-04-03T03:27:24;6.37;;;5.87;;
17151;SDS011;8691;50.828;4.700;2023-04-03T03:30:00;8.73;;;6.20;;
17151;SDS011;8691;50.828;4.700;2023-04-03T03:32:38;7.33;;;5.97;;
17151;SDS011;8691;50.828;4.700;2023-04-03T03:35:14;6.93;;;5.63;;
17151;SDS011;8691;50.828;4.700;2023-04-03T03:37:51;7.37;;;6.40;;
17151;SDS011;8691;50.828;4.700;2023-04-03T03:40:28;6.50;;;5.80;;
17151;SDS011;8691;50.828;4.700;2023-04-03T03:43:04;7.73;;;6.60;;
17151;SDS011;8691;50.828;4.700;2023-04-03T03:45:41;7.30;;;6.33;;
17151;SDS011;8691;50.828;4.700;2023-04-03T03:48:18;6.40;;;5.80;;
17151;SDS011;8691;50.828;4.700;2023-04-03T03:50:54;8.53;;;6.47;;
17151;SDS011;8691;50.828;4.700;2023-04-03T03:53:31;6.67;;;5.97;;
17151;SDS011;8691;50.828;4.700;2023-04-03T03:56:08;6.70;;;6.10;;
17151;SDS011;8691;50.828;4.700;2023-04-03T03:58:44;7.20;;;6.30;;
17151;SDS011;8691;50.828;4.700;2023-04-03T04:01:21;8.87;;;8.00;;
17151;SDS011;8691;50.828;4.700;2023-04-03T04:03:58;7.13;;;6.43;;
17151;SDS011;8691;50.828;4.700;2023-04-03T04:06:34;7.43;;;6.73;;
17151;SDS011;8691;50.828;4.700;2023-04-03T04:09:11;7.37;;;6.57;;
17151;SDS011;8691;50.828;4.700;2023-04-03T04:11:47;6.87;;;6.33;;
17151;SDS011;8691;50.828;4.700;2023-04-03T04:14:24;7.27;;;6.57;;
17151;SDS011;8691;50.828;4.700;2023-04-03T04:17:01;8.73;;;7.00;;
17151;SDS011;8691;50.828;4.700;2023-04-03T04:19:37;6.67;;;6.17;;
17151;SDS011;8691;50.828;4.700;2023-04-03T04:22:14;8.03;;;6.87;;
17151;SDS011;8691;50.828;4.700;2023-04-03T04:24:51;7.00;;;6.30;;
17151;SDS011;8691;50.828;4.700;2023-04-03T04:27:27;6.77;;;6.17;;
17151;SDS011;8691;50.828;4.700;2023-04-03T04:30:04;7.57;;;6.87;;
17151;SDS011;8691;50.828;4.700;2023-04-03T04:32:41;7.07;;;6.47;;
17151;SDS011;8691;50.828;4.700;2023-04-03T04:35:17;8.63;;;7.73;;
17151;SDS011;8691;50.828;4.700;2023-04-03T04:37:54;7.47;;;6.87;;
17151;SDS011;8691;50.828;4.700;2023-04-03T04:40:31;7.37;;;6.73;;
17151;SDS011;8691;50.828;4.700;2023-04-03T04:43:08;10.40;;;9.40;;
17151;SDS011;8691;50.828;4.700;2023-04-03T04:45:44;10.10;;;8.17;;
17151;SDS011;8691;50.828;4.700;2023-04-03T04:48:22;8.43;;;7.63;;
17151;SDS011;8691;50.828;4.700;2023-04-03T04:50:58;7.30;;;6.60;;
17151;SDS011;8691;50.828;4.700;2023-04-03T04:53:35;10.93;;;7.30;;
17151;SDS011;8691;50.828;4.700;2023-04-03T04:56:11;7.10;;;6.47;;
17151;SDS011;8691;50.828;4.700;2023-04-03T04:58:49;7.83;;;7.17;;
17151;SDS011;8691;50.828;4.700;2023-04-03T05:01:26;7.73;;;6.93;;
17151;SDS011;8691;50.828;4.700;2023-04-03T05:04:03;7.53;;;6.83;;
17151;SDS011;8691;50.828;4.700;2023-04-03T05:06:40;11.77;;;7.57;;
17151;SDS011;8691;50.828;4.700;2023-04-03T05:09:16;8.83;;;7.93;;
17151;SDS011;8691;50.828;4.700;2023-04-03T05:11:53;7.07;;;6.40;;
17151;SDS011;8691;50.828;4.700;2023-04-03T05:14:29;8.40;;;7.60;;
17151;SDS011;8691;50.828;4.700;2023-04-03T05:17:06;8.90;;;7.83;;
17151;SDS011;8691;50.828;4.700;2023-04-03T05:19:43;10.03;;;7.83;;
17151;SDS011;8691;50.828;4.700;2023-04-03T05:22:19;7.77;;;7.07;;
17151;SDS011;8691;50.828;4.700;2023-04-03T05:24:56;8.37;;;7.67;;
17151;SDS011;8691;50.828;4.700;2023-04-03T05:27:33;8.93;;;8.03;;
17151;SDS011;8691;50.828;4.700;2023-04-03T05:30:10;8.90;;;8.13;;
17151;SDS011;8691;50.828;4.700;2023-04-03T05:32:47;12.00;;;8.20;;
17151;SDS011;8691;50.828;4.700;2023-04-03T05:35:23;9.90;;;7.87;;
17151;SDS011;8691;50.828;4.700;2023-04-03T05:38:00;13.67;;;12.27;;
17151;SDS011;8691;50.828;4.700;2023-04-03T05:40:37;11.03;;;9.87;;
17151;SDS011;8691;50.828;4.700;2023-04-03T05:43:14;10.80;;;7.93;;
17151;SDS011;8691;50.828;4.700;2023-04-03T05:45:51;9.23;;;8.10;;
17151;SDS011;8691;50.828;4.700;2023-04-03T05:48:27;9.40;;;8.47;;
17151;SDS011;8691;50.828;4.700;2023-04-03T05:51:04;8.77;;;7.63;;
17151;SDS011;8691;50.828;4.700;2023-04-03T05:53:40;8.40;;;7.60;;
17151;SDS011;8691;50.828;4.700;2023-04-03T05:56:17;9.33;;;8.30;;
17151;SDS011;8691;50.828;4.700;2023-04-03T05:58:54;13.00;;;10.30;;
17151;SDS011;8691;50.828;4.700;2023-04-03T06:01:31;9.83;;;8.23;;
17151;SDS011;8691;50.828;4.700;2023-04-03T06:04:07;11.43;;;9.10;;
17151;SDS011;8691;50.828;4.700;2023-04-03T06:06:48;8.10;;;7.30;;
17151;SDS011;8691;50.828;4.700;2023-04-03T06:09:29;9.07;;;6.80;;
17151;SDS011;8691;50.828;4.700;2023-04-03T06:12:06;6.97;;;6.03;;
17151;SDS011;8691;50.828;4.700;2023-04-03T06:14:43;7.47;;;6.70;;
17151;SDS011;8691;50.828;4.700;2023-04-03T06:17:19;9.97;;;8.17;;
17151;SDS011;8691;50.828;4.700;2023-04-03T06:19:56;9.03;;;8.23;;
17151;SDS011;8691;50.828;4.700;2023-04-03T06:22:33;10.93;;;9.07;;
17151;SDS011;8691;50.828;4.700;2023-04-03T06:25:09;11.73;;;9.53;;
17151;SDS011;8691;50.828;4.700;2023-04-03T06:27:46;9.50;;;8.53;;
17151;SDS011;8691;50.828;4.700;2023-04-03T06:30:23;8.93;;;6.83;;
17151;SDS011;8691;50.828;4.700;2023-04-03T06:32:59;8.37;;;6.60;;
17151;SDS011;8691;50.828;4.700;2023-04-03T06:35:36;8.30;;;5.97;;
17151;SDS011;8691;50.828;4.700;2023-04-03T06:38:12;9.17;;;5.83;;
17151;SDS011;8691;50.828;4.700;2023-04-03T06:40:49;6.93;;;6.10;;
17151;SDS011;8691;50.828;4.700;2023-04-03T06:43:26;7.27;;;5.50;;
17151;SDS011;8691;50.828;4.700;2023-04-03T06:46:02;8.97;;;5.17;;
17151;SDS011;8691;50.828;4.700;2023-04-03T06:48:39;7.07;;;5.57;;
17151;SDS011;8691;50.828;4.700;2023-04-03T06:53:56;6.57;;;5.87;;
17151;SDS011;8691;50.828;4.700;2023-04-03T06:56:35;6.90;;;5.77;;
17151;SDS011;8691;50.828;4.700;2023-04-03T06:59:11;8.20;;;5.67;;
17151;SDS011;8691;50.828;4.700;2023-04-03T07:01:48;7.17;;;5.57;;
17151;SDS011;8691;50.828;4.700;2023-04-03T07:04:24;7.20;;;5.23;;
17151;SDS011;8691;50.828;4.700;2023-04-03T07:07:01;6.40;;;5.47;;
17151;SDS011;8691;50.828;4.700;2023-04-03T07:09:38;8.87;;;5.40;;
17151;SDS011;8691;50.828;4.700;2023-04-03T07:12:14;6.00;;;5.40;;
17151;SDS011;8691;50.828;4.700;2023-04-03T07:14:51;7.63;;;5.93;;
17151;SDS011;8691;50.828;4.700;2023-04-03T07:17:28;6.47;;;5.33;;
17151;SDS011;8691;50.828;4.700;2023-04-03T07:20:05;6.37;;;5.03;;
17151;SDS011;8691;50.828;4.700;2023-04-03T07:22:41;6.53;;;5.37;;
17151;SDS011;8691;50.828;4.700;2023-04-03T07:25:19;6.17;;;4.80;;
17151;SDS011;8691;50.828;4.700;2023-04-03T07:27:55;10.40;;;5.60;;
17151;SDS011;8691;50.828;4.700;2023-04-03T07:30:32;5.53;;;4.90;;
17151;SDS011;8691;50.828;4.700;2023-04-03T07:33:09;6.47;;;5.33;;
17151;SDS011;8691;50.828;4.700;2023-04-03T07:35:46;5.70;;;5.10;;
17151;SDS011;8691;50.828;4.700;2023-04-03T07:38:22;5.40;;;4.90;;
17151;SDS011;8691;50.828;4.700;2023-04-03T07:40:59;6.07;;;4.97;;
17151;SDS011;8691;50.828;4.700;2023-04-03T07:43:35;7.83;;;5.13;;
17151;SDS011;8691;50.828;4.700;2023-04-03T07:46:13;6.10;;;4.60;;
17151;SDS011;8691;50.828;4.700;2023-04-03T07:48:50;4.90;;;4.40;;
17151;SDS011;8691;50.828;4.700;2023-04-03T07:51:26;5.40;;;4.90;;
17151;SDS011;8691;50.828;4.700;2023-04-03T07:54:03;5.27;;;4.40;;
17151;SDS011;8691;50.828;4.700;2023-04-03T07:56:40;5.20;;;4.50;;
17151;SDS011;8691;50.828;4.700;2023-04-03T07:59:16;6.03;;;4.70;;
17151;SDS011;8691;50.828;4.700;2023-04-03T08:01:53;5.00;;;3.80;;
17151;SDS011;8691;50.828;4.700;2023-04-03T08:04:30;5.33;;;4.27;;
17151;SDS011;8691;50.828;4.700;2023-04-03T08:07:06;5.33;;;3.80;;
17151;SDS011;8691;50.828;4.700;2023-04-03T08:09:43;4.70;;;3.87;;
17151;SDS011;8691;50.828;4.700;2023-04-03T08:12:19;5.70;;;3.90;;
17151;SDS011;8691;50.828;4.700;2023-04-03T08:14:56;4.87;;;3.57;;
17151;SDS011;8691;50.828;4.700;2023-04-03T08:17:33;4.23;;;3.63;;
17151;SDS011;8691;50.828;4.700;2023-04-03T08:20:10;5.33;;;3.90;;
17151;SDS011;8691;50.828;4.700;2023-04-03T08:22:46;4.57;;;3.70;;
17151;SDS011;8691;50.828;4.700;2023-04-03T08:25:23;6.50;;;4.10;;
17151;SDS011;8691;50.828;4.700;2023-04-03T08:27:59;4.50;;;3.80;;
17151;SDS011;8691;50.828;4.700;2023-04-03T08:30:38;3.40;;;3.10;;
17151;SDS011;8691;50.828;4.700;2023-04-03T08:33:13;4.67;;;3.37;;
17151;SDS011;8691;50.828;4.700;2023-04-03T08:35:49;4.00;;;3.00;;
17151;SDS011;8691;50.828;4.700;2023-04-03T08:38:26;5.80;;;3.27;;
17151;SDS011;8691;50.828;4.700;2023-04-03T08:47:17;4.60;;;3.20;;
17151;SDS011;8691;50.828;4.700;2023-04-03T08:50:11;4.70;;;3.10;;
17151;SDS011;8691;50.828;4.700;2023-04-03T08:52:44;3.80;;;2.57;;
17151;SDS011;8691;50.828;4.700;2023-04-03T08:55:27;3.80;;;2.30;;
17151;SDS011;8691;50.828;4.700;2023-04-03T08:58:14;3.37;;;2.70;;
17151;SDS011;8691;50.828;4.700;2023-04-03T09:00:50;4.80;;;2.73;;
17151;SDS011;8691;50.828;4.700;2023-04-03T09:03:32;3.20;;;2.10;;
17151;SDS011;8691;50.828;4.700;2023-04-03T09:06:15;4.77;;;2.40;;
17151;SDS011;8691;50.828;4.700;2023-04-03T09:11:44;4.33;;;2.40;;
17151;SDS011;8691;50.828;4.700;2023-04-03T09:17:03;4.80;;;2.47;;
17151;SDS011;8691;50.828;4.700;2023-04-03T09:19:52;3.03;;;2.30;;
17151;SDS011;8691;50.828;4.700;2023-04-03T09:22:45;4.03;;;2.50;;
17151;SDS011;8691;50.828;4.700;2023-04-03T09:25:27;5.15;;;3.00;;
17151;SDS011;8691;50.828;4.700;2023-04-03T09:28:03;3.30;;;2.30;;
17151;SDS011;8691;50.828;4.700;2023-04-03T09:30:35;3.23;;;2.50;;
17151;SDS011;8691;50.828;4.700;2023-04-03T09:33:12;3.67;;;2.40;;
17151;SDS011;8691;50.828;4.700;2023-04-03T09:35:49;2.80;;;2.50;;
17151;SDS011;8691;50.828;4.700;2023-04-03T09:38:26;4.50;;;2.50;;
17151;SDS011;8691;50.828;4.700;2023-04-03T09:41:04;6.73;;;2.80;;
17151;SDS011;8691;50.828;4.700;2023-04-03T09:43:39;3.95;;;2.80;;
17151;SDS011;8691;50.828;4.700;2023-04-03T09:46:24;4.90;;;2.80;;
17151;SDS011;8691;50.828;4.700;2023-04-03T09:48:59;3.17;;;2.50;;
17151;SDS011;8691;50.828;4.700;2023-04-03T09:51:35;3.93;;;2.70;;
17151;SDS011;8691;50.828;4.700;2023-04-03T09:54:25;4.30;;;2.63;;
17151;SDS011;8691;50.828;4.700;2023-04-03T09:57:02;5.13;;;2.53;;
17151;SDS011;8691;50.828;4.700;2023-04-03T09:59:44;4.30;;;2.43;;
17151;SDS011;8691;50.828;4.700;2023-04-03T10:02:22;3.77;;;2.30;;
17151;SDS011;8691;50.828;4.700;2023-04-03T10:04:57;3.80;;;2.57;;
17151;SDS011;8691;50.828;4.700;2023-04-03T10:07:34;3.97;;;2.70;;
17151;SDS011;8691;50.828;4.700;2023-04-03T10:10:20;3.73;;;2.57;;
17151;SDS011;8691;50.828;4.700;2023-04-03T10:15:53;3.07;;;2.37;;
17151;SDS011;8691;50.828;4.700;2023-04-03T10:24:44;3.30;;;2.10;;
17151;SDS011;8691;50.828;4.700;2023-04-03T10:30:12;3.50;;;2.10;;
17151;SDS011;8691;50.828;4.700;2023-04-03T10:32:53;4.67;;;2.27;;
17151;SDS011;8691;50.828;4.700;2023-04-03T10:35:44;4.43;;;2.57;;
17151;SDS011;8691;50.828;4.700;2023-04-03T10:44:17;3.30;;;2.10;;
17151;SDS011;8691;50.828;4.700;2023-04-03T10:52:24;3.93;;;2.60;;
17151;SDS011;8691;50.828;4.700;2023-04-03T10:58:03;5.03;;;2.67;;
17151;SDS011;8691;50.828;4.700;2023-04-03T11:00:42;4.70;;;2.20;;
17151;SDS011;8691;50.828;4.700;2023-04-03T11:03:29;4.17;;;2.27;;
17151;SDS011;8691;50.828;4.700;2023-04-03T11:06:05;6.47;;;2.60;;
17151;SDS011;8691;50.828;4.700;2023-04-03T11:11:32;2.53;;;2.30;;
17151;SDS011;8691;50.828;4.700;2023-04-03T11:25:23;3.60;;;2.10;;
17151;SDS011;8691;50.828;4.700;2023-04-03T11:28:00;3.50;;;1.90;;
17151;SDS011;8691;50.828;4.700;2023-04-03T11:33:41;4.07;;;2.30;;
17151;SDS011;8691;50.828;4.700;2023-04-03T11:36:30;3.50;;;2.40;;
17151;SDS011;8691;50.828;4.700;2023-04-03T11:42:14;3.33;;;2.13;;
17151;SDS011;8691;50.828;4.700;2023-04-03T11:44:50;3.53;;;2.03;;
17151;SDS011;8691;50.828;4.700;2023-04-03T11:47:47;2.10;;;1.90;;
17151;SDS011;8691;50.828;4.700;2023-04-03T11:50:43;4.37;;;2.13;;
17151;SDS011;8691;50.828;4.700;2023-04-03T11:58:27;3.93;;;2.30;;
17151;SDS011;8691;50.828;4.700;2023-04-03T12:01:12;3.67;;;2.17;;
17151;SDS011;8691;50.828;4.700;2023-04-03T12:09:29;4.13;;;1.60;;
17151;SDS011;8691;50.828;4.700;2023-04-03T12:12:21;3.92;;;1.92;;
17151;SDS011;8691;50.828;4.700;2023-04-03T12:17:53;2.70;;;1.80;;
17151;SDS011;8691;50.828;4.700;2023-04-03T12:23:26;2.70;;;2.00;;
17151;SDS011;8691;50.828;4.700;2023-04-03T12:26:24;1.90;;;1.70;;
17151;SDS011;8691;50.828;4.700;2023-04-03T12:28:56;3.00;;;2.10;;
17151;SDS011;8691;50.828;4.700;2023-04-03T12:31:37;1.80;;;1.70;;
17151;SDS011;8691;50.828;4.700;2023-04-03T12:34:15;2.17;;;1.43;;
17151;SDS011;8691;50.828;4.700;2023-04-03T12:36:59;2.43;;;1.47;;
17151;SDS011;8691;50.828;4.700;2023-04-03T12:39:45;2.03;;;1.50;;
17151;SDS011;8691;50.828;4.700;2023-04-03T12:42:46;2.00;;;1.60;;
17151;SDS011;8691;50.828;4.700;2023-04-03T12:45:22;2.37;;;1.47;;
17151;SDS011;8691;50.828;4.700;2023-04-03T12:47:57;2.20;;;1.40;;
17151;SDS011;8691;50.828;4.700;2023-04-03T12:50:34;2.83;;;1.50;;
17151;SDS011;8691;50.828;4.700;2023-04-03T12:53:24;3.73;;;1.60;;
17151;SDS011;8691;50.828;4.700;2023-04-03T12:59:18;2.23;;;1.33;;
17151;SDS011;8691;50.828;4.700;2023-04-03T13:01:55;2.40;;;1.60;;
17151;SDS011;8691;50.828;4.700;2023-04-03T13:04:34;1.73;;;1.33;;
17151;SDS011;8691;50.828;4.700;2023-04-03T13:07:21;2.03;;;1.50;;
17151;SDS011;8691;50.828;4.700;2023-04-03T13:10:23;2.43;;;1.40;;
17151;SDS011;8691;50.828;4.700;2023-04-03T13:12:49;2.65;;;1.90;;
17151;SDS011;8691;50.828;4.700;2023-04-03T13:15:25;2.77;;;1.80;;
17151;SDS011;8691;50.828;4.700;2023-04-03T13:18:01;2.33;;;1.70;;
17151;SDS011;8691;50.828;4.700;2023-04-03T13:20:38;4.23;;;1.90;;
17151;SDS011;8691;50.828;4.700;2023-04-03T13:23:14;3.17;;;1.87;;
17151;SDS011;8691;50.828;4.700;2023-04-03T13:25:51;4.13;;;1.90;;
17151;SDS011;8691;50.828;4.700;2023-04-03T13:28:27;2.53;;;1.80;;
17151;SDS011;8691;50.828;4.700;2023-04-03T13:33:55;2.20;;;2.00;;
17151;SDS011;8691;50.828;4.700;2023-04-03T13:36:40;3.83;;;1.80;;
17151;SDS011;8691;50.828;4.700;2023-04-03T13:42:01;2.53;;;1.60;;
17151;SDS011;8691;50.828;4.700;2023-04-03T13:44:38;1.73;;;1.60;;
17151;SDS011;8691;50.828;4.700;2023-04-03T13:47:18;5.73;;;1.90;;
17151;SDS011;8691;50.828;4.700;2023-04-03T13:50:02;2.03;;;1.90;;
17151;SDS011;8691;50.828;4.700;2023-04-03T13:52:41;3.27;;;1.70;;
17151;SDS011;8691;50.828;4.700;2023-04-03T13:58:16;3.87;;;1.70;;
17151;SDS011;8691;50.828;4.700;2023-04-03T14:00:46;2.33;;;1.70;;
17151;SDS011;8691;50.828;4.700;2023-04-03T14:06:16;2.93;;;1.70;;
17151;SDS011;8691;50.828;4.700;2023-04-03T14:08:53;2.50;;;1.73;;
17151;SDS011;8691;50.828;4.700;2023-04-03T14:11:29;3.50;;;2.00;;
17151;SDS011;8691;50.828;4.700;2023-04-03T14:14:14;3.50;;;1.80;;
17151;SDS011;8691;50.828;4.700;2023-04-03T14:16:51;1.80;;;1.70;;
17151;SDS011;8691;50.828;4.700;2023-04-03T14:19:33;2.40;;;1.80;;
17151;SDS011;8691;50.828;4.700;2023-04-03T14:22:11;2.30;;;1.80;;
17151;SDS011;8691;50.828;4.700;2023-04-03T14:24:52;3.87;;;1.77;;
17151;SDS011;8691;50.828;4.700;2023-04-03T14:27:30;6.10;;;1.80;;
17151;SDS011;8691;50.828;4.700;2023-04-03T14:30:08;2.40;;;1.80;;
17151;SDS011;8691;50.828;4.700;2023-04-03T14:32:42;2.10;;;1.80;;
17151;SDS011;8691;50.828;4.700;2023-04-03T14:35:20;2.80;;;1.90;;
17151;SDS011;8691;50.828;4.700;2023-04-03T14:37:56;2.87;;;1.80;;
17151;SDS011;8691;50.828;4.700;2023-04-03T14:40:33;3.50;;;2.00;;
17151;SDS011;8691;50.828;4.700;2023-04-03T14:43:10;3.50;;;1.80;;
17151;SDS011;8691;50.828;4.700;2023-04-03T14:45:47;3.33;;;1.60;;
17151;SDS011;8691;50.828;4.700;2023-04-03T14:48:24;1.80;;;1.70;;
17151;SDS011;8691;50.828;4.700;2023-04-03T14:50:59;2.23;;;1.70;;
17151;SDS011;8691;50.828;4.700;2023-04-03T14:53:36;2.53;;;1.90;;
17151;SDS011;8691;50.828;4.700;2023-04-03T14:56:17;3.10;;;2.03;;
17151;SDS011;8691;50.828;4.700;2023-04-03T14:58:59;4.00;;;2.38;;
17151;SDS011;8691;50.828;4.700;2023-04-03T15:01:35;2.83;;;1.93;;
17151;SDS011;8691;50.828;4.700;2023-04-03T15:04:13;2.33;;;2.00;;
17151;SDS011;8691;50.828;4.700;2023-04-03T15:06:51;2.83;;;2.10;;
17151;SDS011;8691;50.828;4.700;2023-04-03T15:09:28;2.80;;;2.10;;
17151;SDS011;8691;50.828;4.700;2023-04-03T15:12:04;3.07;;;2.07;;
17151;SDS011;8691;50.828;4.700;2023-04-03T15:14:41;4.50;;;1.80;;
17151;SDS011;8691;50.828;4.700;2023-04-03T15:17:20;3.43;;;2.03;;
17151;SDS011;8691;50.828;4.700;2023-04-03T15:19:54;3.73;;;2.10;;
17151;SDS011;8691;50.828;4.700;2023-04-03T15:22:31;2.53;;;1.80;;
17151;SDS011;8691;50.828;4.700;2023-04-03T15:25:08;3.63;;;2.20;;
17151;SDS011;8691;50.828;4.700;2023-04-03T15:27:44;4.00;;;2.37;;
17151;SDS011;8691;50.828;4.700;2023-04-03T15:30:21;3.40;;;2.50;;
17151;SDS011;8691;50.828;4.700;2023-04-03T15:32:58;5.03;;;2.40;;
17151;SDS011;8691;50.828;4.700;2023-04-03T15:35:34;5.70;;;2.20;;
17151;SDS011;8691;50.828;4.700;2023-04-03T15:38:11;2.63;;;2.13;;
17151;SDS011;8691;50.828;4.700;2023-04-03T15:40:48;3.23;;;2.00;;
17151;SDS011;8691;50.828;4.700;2023-04-03T15:43:24;3.53;;;2.43;;
17151;SDS011;8691;50.828;4.700;2023-04-03T15:46:02;3.20;;;2.20;;
17151;SDS011;8691;50.828;4.700;2023-04-03T15:48:38;3.37;;;2.10;;
17151;SDS011;8691;50.828;4.700;2023-04-03T15:51:15;2.60;;;2.07;;
17151;SDS011;8691;50.828;4.700;2023-04-03T15:53:52;3.47;;;1.77;;
17151;SDS011;8691;50.828;4.700;2023-04-03T15:56:28;3.83;;;2.20;;
17151;SDS011;8691;50.828;4.700;2023-04-03T15:59:05;3.07;;;2.40;;
17151;SDS011;8691;50.828;4.700;2023-04-03T16:01:41;3.30;;;2.20;;
17151;SDS011;8691;50.828;4.700;2023-04-03T16:04:18;3.43;;;2.60;;
17151;SDS011;8691;50.828;4.700;2023-04-03T16:06:55;6.20;;;2.40;;
17151;SDS011;8691;50.828;4.700;2023-04-03T16:09:32;4.53;;;2.70;;
17151;SDS011;8691;50.828;4.700;2023-04-03T16:12:08;4.20;;;2.40;;
17151;SDS011;8691;50.828;4.700;2023-04-03T16:14:45;3.30;;;2.17;;
17151;SDS011;8691;50.828;4.700;2023-04-03T16:17:21;5.07;;;2.37;;
17151;SDS011;8691;50.828;4.700;2023-04-03T16:19:58;3.23;;;2.00;;
17151;SDS011;8691;50.828;4.700;2023-04-03T16:22:35;3.73;;;2.17;;
17151;SDS011;8691;50.828;4.700;2023-04-03T16:25:12;4.13;;;2.23;;
17151;SDS011;8691;50.828;4.700;2023-04-03T16:27:49;4.50;;;2.20;;
17151;SDS011;8691;50.828;4.700;2023-04-03T16:30:26;5.13;;;2.63;;
17151;SDS011;8691;50.828;4.700;2023-04-03T16:33:03;3.27;;;2.30;;
17151;SDS011;8691;50.828;4.700;2023-04-03T16:35:39;4.77;;;2.10;;
17151;SDS011;8691;50.828;4.700;2023-04-03T16:38:17;4.57;;;2.60;;
17151;SDS011;8691;50.828;4.700;2023-04-03T16:40:53;3.20;;;2.20;;
17151;SDS011;8691;50.828;4.700;2023-04-03T16:43:30;2.53;;;2.10;;
17151;SDS011;8691;50.828;4.700;2023-04-03T16:46:06;3.97;;;2.63;;
17151;SDS011;8691;50.828;4.700;2023-04-03T16:48:43;3.50;;;2.53;;
17151;SDS011;8691;50.828;4.700;2023-04-03T16:51:20;3.77;;;2.47;;
17151;SDS011;8691;50.828;4.700;2023-04-03T16:53:57;4.73;;;2.33;;
17151;SDS011;8691;50.828;4.700;2023-04-03T16:56:34;3.03;;;2.13;;
17151;SDS011;8691;50.828;4.700;2023-04-03T16:59:11;3.20;;;2.10;;
17151;SDS011;8691;50.828;4.700;2023-04-03T17:01:47;4.20;;;1.83;;
17151;SDS011;8691;50.828;4.700;2023-04-03T17:04:24;2.97;;;2.30;;
17151;SDS011;8691;50.828;4.700;2023-04-03T17:07:01;3.83;;;1.83;;
17151;SDS011;8691;50.828;4.700;2023-04-03T17:09:38;3.13;;;2.13;;
17151;SDS011;8691;50.828;4.700;2023-04-03T17:12:14;4.07;;;2.30;;
17151;SDS011;8691;50.828;4.700;2023-04-03T17:14:51;2.30;;;1.77;;
17151;SDS011;8691;50.828;4.700;2023-04-03T17:17:28;4.00;;;2.03;;
17151;SDS011;8691;50.828;4.700;2023-04-03T17:20:04;2.27;;;1.60;;
17151;SDS011;8691;50.828;4.700;2023-04-03T17:22:41;4.47;;;2.13;;
17151;SDS011;8691;50.828;4.700;2023-04-03T17:25:18;5.17;;;2.10;;
17151;SDS011;8691;50.828;4.700;2023-04-03T17:27:54;3.90;;;2.03;;
17151;SDS011;8691;50.828;4.700;2023-04-03T17:30:31;3.27;;;2.70;;
17151;SDS011;8691;50.828;4.700;2023-04-03T17:33:08;3.67;;;2.63;;
17151;SDS011;8691;50.828;4.700;2023-04-03T17:35:44;3.97;;;2.23;;
17151;SDS011;8691;50.828;4.700;2023-04-03T17:38:21;4.00;;;2.50;;
17151;SDS011;8691;50.828;4.700;2023-04-03T17:40:58;3.97;;;2.27;;